Time;durP1;ratioP1;P1;durP2;ratioP2;P2;SDS_P1;SDS_P2;PMS_P1;PMS_P2;Temp;Humidity;BMP_temperature;BMP_pressure;BME280_temperature;BME280_humidity;BME280_pressure;Samples;Min_cycle;Max_cycle;Signal;HPM_P1;HPM_P2
2022/03/19 00:00:38;;;;;;;3.92;1.58;;;;;;;8.95;45.25;102573.00;2067200;28;20049;-81
2022/03/19 00:02:02;;;;;;;6.05;2.15;;;;;;;8.88;44.49;102567.34;2070263;28;20109;-81
2022/03/19 00:03:23;;;;;;;5.22;1.65;;;;;;;8.86;44.08;102580.41;2079768;28;20042;-82
2022/03/19 00:04:46;;;;;;;5.30;1.90;;;;;;;8.86;43.18;102588.31;2065611;28;20050;-81
2022/03/19 00:06:09;;;;;;;6.28;1.73;;;;;;;8.83;43.18;102580.28;2069240;28;20081;-81
2022/03/19 00:07:32;;;;;;;7.00;1.95;;;;;;;8.85;43.13;102590.91;2078253;28;20136;-81
2022/03/19 00:08:56;;;;;;;5.75;2.25;;;;;;;8.86;43.46;102576.91;2079775;28;20037;-81
2022/03/19 00:10:19;;;;;;;3.38;1.55;;;;;;;8.87;43.58;102586.59;2071482;28;20049;-81
2022/03/19 00:11:43;;;;;;;6.70;1.85;;;;;;;8.86;43.56;102576.91;2076491;28;20095;-81
2022/03/19 00:13:06;;;;;;;3.92;1.73;;;;;;;8.84;43.20;102584.72;2070738;28;20067;-81
2022/03/19 00:14:27;;;;;;;7.63;2.50;;;;;;;8.83;43.55;102569.75;2069392;28;20077;-82
2022/03/19 00:15:51;;;;;;;3.10;2.10;;;;;;;8.83;43.44;102553.03;2062948;28;20058;-81
2022/03/19 00:17:15;;;;;;;5.97;2.33;;;;;;;8.83;43.51;102579.38;2076949;28;20865;-83
2022/03/19 00:18:38;;;;;;;8.32;4.30;;;;;;;8.79;43.15;102581.81;2055190;28;20137;-82
2022/03/19 00:19:59;;;;;;;3.65;2.33;;;;;;;8.77;42.28;102556.25;2066674;28;20042;-82
2022/03/19 00:21:22;;;;;;;7.45;2.15;;;;;;;8.74;42.56;102562.25;2079168;28;20092;-82
2022/03/19 00:22:44;;;;;;;8.70;2.58;;;;;;;8.77;43.00;102567.69;2071369;28;20682;-82
2022/03/19 00:24:08;;;;;;;9.55;2.75;;;;;;;8.79;43.58;102567.78;2074101;28;20078;-82
2022/03/19 00:25:30;;;;;;;6.30;2.30;;;;;;;8.76;44.06;102578.16;2079143;28;20048;-82
2022/03/19 00:26:53;;;;;;;9.45;2.20;;;;;;;8.73;43.72;102563.09;2069064;28;20089;-82
2022/03/19 00:28:18;;;;;;;8.07;1.92;;;;;;;8.75;43.61;102566.72;2077013;28;20045;-80
2022/03/19 00:29:40;;;;;;;8.35;2.20;;;;;;;8.78;43.45;102565.97;2071532;28;20497;-80
2022/03/19 00:31:05;;;;;;;5.70;3.15;;;;;;;8.79;43.39;102558.13;2068560;28;20050;-81
2022/03/19 00:32:26;;;;;;;5.72;1.60;;;;;;;8.80;43.70;102566.94;2055790;28;20446;-81
2022/03/19 00:33:49;;;;;;;4.30;2.08;;;;;;;8.79;43.86;102584.47;2082173;28;20045;-81
2022/03/19 00:35:10;;;;;;;9.50;3.00;;;;;;;8.75;43.70;102573.69;2084281;28;20612;-80
2022/03/19 00:36:32;;;;;;;4.53;2.10;;;;;;;8.72;43.62;102577.09;2065675;28;20065;-80
2022/03/19 00:37:54;;;;;;;9.05;2.42;;;;;;;8.70;43.10;102570.84;2083248;28;20045;-81
2022/03/19 00:39:17;;;;;;;6.57;2.30;;;;;;;8.68;42.17;102569.84;2073163;28;20042;-80
2022/03/19 00:40:38;;;;;;;6.18;2.13;;;;;;;8.70;41.83;102567.31;2071355;28;20073;-80
2022/03/19 00:42:01;;;;;;;6.07;2.42;;;;;;;8.66;40.57;102575.88;2066894;28;20061;-80
2022/03/19 00:43:23;;;;;;;7.88;1.85;;;;;;;8.62;40.14;102566.00;2076651;28;20049;-80
2022/03/19 00:44:47;;;;;;;5.78;1.77;;;;;;;8.58;40.71;102570.19;2060108;28;20081;-80
2022/03/19 00:46:11;;;;;;;7.85;2.40;;;;;;;8.59;40.81;102572.03;2058262;28;20054;-80
2022/03/19 00:47:33;;;;;;;5.70;1.90;;;;;;;8.59;40.82;102577.28;2067659;28;20030;-79
2022/03/19 00:48:56;;;;;;;7.97;1.70;;;;;;;8.58;40.79;102562.31;2071005;28;20076;-80
2022/03/19 00:50:19;;;;;;;3.03;1.38;;;;;;;8.61;40.94;102565.06;2068627;28;20058;-80
2022/03/19 00:51:41;;;;;;;6.15;2.58;;;;;;;8.63;40.71;102552.00;2067361;28;20046;-81
2022/03/19 00:53:05;;;;;;;3.13;1.27;;;;;;;8.62;40.09;102555.47;2071577;28;20140;-81
2022/03/19 00:54:26;;;;;;;8.20;2.95;;;;;;;8.62;39.94;102563.34;2061106;28;20046;-81
2022/03/19 00:55:49;;;;;;;8.15;2.15;;;;;;;8.62;39.77;102568.63;2065385;28;20160;-81
2022/03/19 00:57:12;;;;;;;7.25;2.00;;;;;;;8.60;39.69;102565.91;2067813;28;20103;-81
2022/03/19 00:58:34;;;;;;;8.27;2.25;;;;;;;8.58;40.11;102559.66;2071204;28;20081;-81
2022/03/19 00:59:56;;;;;;;6.25;2.20;;;;;;;8.60;40.49;102567.66;2063388;28;20038;-80
2022/03/19 01:01:20;;;;;;;5.43;1.70;;;;;;;8.59;40.63;102566.75;2068487;28;20042;-81
2022/03/19 01:02:43;;;;;;;5.70;2.38;;;;;;;8.59;40.59;102574.66;2064449;28;20081;-81
2022/03/19 01:04:06;;;;;;;9.98;2.30;;;;;;;8.61;40.60;102572.06;2067346;28;20162;-80
2022/03/19 01:05:29;;;;;;;3.97;1.73;;;;;;;8.64;40.98;102569.63;2076552;28;20398;-81
2022/03/19 01:06:51;;;;;;;4.78;2.05;;;;;;;8.64;41.26;102572.25;2070186;28;20144;-81
2022/03/19 01:08:14;;;;;;;2.55;1.45;;;;;;;8.61;41.04;102559.81;2076347;28;20457;-81
2022/03/19 01:09:37;;;;;;;3.15;1.40;;;;;;;8.59;41.00;102556.22;2078470;28;20065;-80
2022/03/19 01:11:00;;;;;;;9.05;1.88;;;;;;;8.56;41.02;102556.03;2062881;28;20612;-81
2022/03/19 01:12:21;;;;;;;5.78;1.95;;;;;;;8.57;40.82;102555.22;2066256;28;20046;-80
2022/03/19 01:13:44;;;;;;;5.60;1.75;;;;;;;8.53;40.08;102555.91;2075154;28;20056;-81
2022/03/19 01:15:09;;;;;;;3.50;1.80;;;;;;;8.52;39.99;102566.34;2078676;28;20037;-81
2022/03/19 01:16:33;;;;;;;7.45;1.85;;;;;;;8.53;40.08;102578.69;2071216;28;20042;-80
2022/03/19 01:17:54;;;;;;;8.48;2.05;;;;;;;8.51;40.31;102573.34;2077548;28;20045;-81
2022/03/19 01:19:52;;;;;;;6.63;1.92;;;;;;;8.52;40.22;102575.16;2063272;28;20106;-81
2022/03/19 01:21:00;;;;;;;6.93;2.83;;;;;;;8.52;40.49;102569.88;2073299;28;20049;-80
2022/03/19 01:22:22;;;;;;;9.98;3.15;;;;;;;8.58;41.21;102569.28;2070650;28;20145;-80
2022/03/19 01:23:44;;;;;;;;;;;;;;;8.59;42.40;102552.69;2066194;28;20049;-80
2022/03/19 01:25:09;;;;;;;7.57;2.92;;;;;;;8.60;42.71;102563.25;2068336;28;19974;-80
2022/03/19 01:26:32;;;;;;;8.02;3.08;;;;;;;8.66;42.88;102570.59;2071177;28;20050;-80
2022/03/19 01:27:55;;;;;;;4.05;2.17;;;;;;;8.69;43.47;102563.75;2065710;28;20057;-79
2022/03/19 01:29:18;;;;;;;;;;;;;;;8.68;43.59;102585.63;2060398;28;20047;-80
2022/03/19 01:30:40;;;;;;;6.35;2.05;;;;;;;8.60;44.08;102568.53;2068419;28;19934;-80
2022/03/19 01:32:05;;;;;;;7.20;2.70;;;;;;;8.59;44.27;102574.66;2069610;28;20133;-80
2022/03/19 01:33:27;;;;;;;9.07;3.08;;;;;;;8.58;44.47;102571.94;2078819;28;20053;-80
2022/03/19 01:34:49;;;;;;;7.07;2.20;;;;;;;8.58;43.97;102575.47;2070394;28;20053;-80
2022/03/19 01:36:12;;;;;;;7.22;2.40;;;;;;;8.57;43.91;102578.00;2067717;28;20049;-80
2022/03/19 01:37:35;;;;;;;7.22;2.53;;;;;;;8.59;43.76;102577.28;2056861;28;20047;-80
2022/03/19 01:38:58;;;;;;;8.40;2.35;;;;;;;8.61;43.78;102572.97;2062330;28;20058;-79
2022/03/19 01:40:22;;;;;;;5.82;2.03;;;;;;;8.60;43.88;102572.94;2068100;28;20074;-79
2022/03/19 01:41:44;;;;;;;6.47;2.03;;;;;;;8.57;43.65;102565.75;2071205;28;20050;-80
2022/03/19 01:43:07;;;;;;;9.35;1.85;;;;;;;8.57;43.56;102568.38;2070235;28;20037;-80
2022/03/19 01:44:28;;;;;;;6.40;1.98;;;;;;;8.57;43.81;102573.66;2062815;28;20038;-80
2022/03/19 01:45:50;;;;;;;4.78;1.95;;;;;;;8.50;43.85;102566.25;2073467;28;20041;-81
2022/03/19 01:47:13;;;;;;;5.28;1.65;;;;;;;8.50;44.17;102578.50;2075218;28;20049;-81
2022/03/19 01:48:36;;;;;;;7.85;2.55;;;;;;;8.43;44.15;102572.00;2076029;28;20073;-81
2022/03/19 01:49:58;;;;;;;3.83;1.75;;;;;;;8.37;43.24;102579.59;2071884;28;20050;-81
2022/03/19 01:51:21;;;;;;;6.80;1.92;;;;;;;8.32;43.10;102581.06;2060022;28;20089;-81
2022/03/19 01:52:43;;;;;;;5.03;1.42;;;;;;;8.31;43.32;102581.88;2068413;28;20132;-81
2022/03/19 01:54:05;;;;;;;5.75;2.22;;;;;;;8.32;43.46;102568.81;2061092;28;20450;-81
2022/03/19 01:55:30;;;;;;;5.47;2.05;;;;;;;8.28;42.78;102572.06;2067554;28;20557;-81
2022/03/19 01:56:54;;;;;;;9.52;1.88;;;;;;;8.22;42.76;102582.25;2068973;28;20045;-81
2022/03/19 01:58:17;;;;;;;4.63;1.75;;;;;;;8.20;42.88;102593.53;2076427;28;20382;-81
2022/03/19 01:59:38;;;;;;;6.88;2.40;;;;;;;8.18;43.33;102580.28;2078681;28;20441;-81
2022/03/19 02:01:02;;;;;;;3.97;1.95;;;;;;;8.16;43.63;102566.13;2062305;28;20046;-81
2022/03/19 02:02:26;;;;;;;2.67;2.20;;;;;;;8.18;43.79;102588.19;2068293;28;20042;-81
2022/03/19 02:03:49;;;;;;;5.43;1.60;;;;;;;8.17;43.30;102590.72;2075870;28;20056;-81
2022/03/19 02:05:16;;;;;;;7.68;2.05;;;;;;;8.20;43.04;102585.63;2083874;28;20133;-81
2022/03/19 02:06:39;;;;;;;5.07;2.03;;;;;;;8.22;43.29;102591.88;2077588;28;20085;-80
2022/03/19 02:08:01;;;;;;;5.97;2.38;;;;;;;8.21;43.40;102598.84;2070650;28;20137;-81
2022/03/19 02:09:23;;;;;;;5.97;1.88;;;;;;;8.19;43.38;102603.16;2062332;28;20058;-80
2022/03/19 02:10:46;;;;;;;7.72;1.77;;;;;;;8.19;43.62;102602.25;2059901;28;20438;-80
2022/03/19 02:12:08;;;;;;;3.00;1.75;;;;;;;8.18;43.96;102589.91;2084443;28;20077;-82
2022/03/19 02:13:31;;;;;;;6.97;2.03;;;;;;;8.16;44.25;102597.69;2066934;28;20053;-81
2022/03/19 02:14:53;;;;;;;6.60;1.90;;;;;;;8.17;44.29;102601.25;2063741;28;20077;-80
2022/03/19 02:16:16;;;;;;;6.10;2.05;;;;;;;8.13;42.96;102605.44;2075905;28;20125;-80
2022/03/19 02:17:39;;;;;;;2.60;1.30;;;;;;;8.06;40.81;102599.75;2060024;28;20084;-81
2022/03/19 02:19:02;;;;;;;3.85;1.77;;;;;;;8.01;41.10;102596.84;2073661;28;20559;-82
2022/03/19 02:20:26;;;;;;;7.93;2.47;;;;;;;7.98;41.46;102580.91;2070472;28;20096;-80
2022/03/19 02:21:49;;;;;;;8.05;1.70;;;;;;;7.98;41.70;102600.22;2059841;28;20104;-81
2022/03/19 02:26:47;;;;;;;7.28;2.50;;;;;;;8.06;42.06;102584.88;2075390;28;22114;-80
2022/03/19 02:28:15;;;;;;;7.95;2.00;;;;;;;8.07;42.27;102589.31;2068547;28;20049;-80
2022/03/19 02:29:38;;;;;;;7.75;2.42;;;;;;;8.10;42.42;102585.94;2067123;28;20053;-80
2022/03/19 02:31:01;;;;;;;4.50;2.03;;;;;;;8.08;41.88;102595.47;2075672;28;20051;-79
2022/03/19 02:32:23;;;;;;;4.55;1.40;;;;;;;8.02;41.86;102602.19;2075486;28;20056;-79
2022/03/19 02:33:46;;;;;;;4.80;1.38;;;;;;;8.02;41.89;102599.56;2072143;28;20511;-80
2022/03/19 02:35:09;;;;;;;5.10;1.52;;;;;;;8.01;41.65;102604.72;2063584;28;20077;-79
2022/03/19 02:36:30;;;;;;;5.03;1.42;;;;;;;7.97;40.66;102608.03;2067654;28;20050;-80
2022/03/19 02:37:53;;;;;;;4.15;1.80;;;;;;;8.00;40.95;102592.44;2067259;28;20042;-79
2022/03/19 02:39:20;;;;;;;5.20;1.70;;;;;;;8.01;41.56;102584.59;2070909;28;20049;-80
2022/03/19 02:40:43;;;;;;;7.78;1.90;;;;;;;8.03;41.83;102587.31;2070325;28;20103;-79
2022/03/19 02:42:05;;;;;;;7.50;2.88;;;;;;;8.02;42.32;102594.31;2059402;28;20123;-79
2022/03/19 02:43:28;;;;;;;4.88;1.70;;;;;;;8.04;42.72;102583.88;2060395;28;20057;-80
2022/03/19 02:44:51;;;;;;;6.07;2.00;;;;;;;8.06;42.95;102589.22;2066144;28;20056;-80
2022/03/19 02:46:13;;;;;;;8.73;2.83;;;;;;;8.02;42.89;102575.91;2067695;28;20144;-81
2022/03/19 02:47:56;;;;;;;4.25;1.67;;;;;;;7.99;42.82;102578.38;2067669;28;20049;-80
2022/03/19 02:49:20;;;;;;;11.85;2.35;;;;;;;8.04;43.05;102583.88;2080459;28;20401;-80
2022/03/19 02:50:42;;;;;;;3.83;1.75;;;;;;;8.07;43.47;102596.31;2063632;28;20089;-80
2022/03/19 02:52:04;;;;;;;6.63;2.08;;;;;;;8.06;43.72;102603.28;2065122;28;20050;-80
2022/03/19 02:53:27;;;;;;;4.35;2.40;;;;;;;8.05;43.64;102616.34;2061467;28;20045;-81
2022/03/19 02:54:51;;;;;;;3.22;1.40;;;;;;;8.00;43.04;102618.75;2083699;28;20327;-80
2022/03/19 02:56:14;;;;;;;4.88;2.13;;;;;;;7.97;42.98;102597.50;2072603;28;20096;-80
2022/03/19 02:57:36;;;;;;;4.97;1.38;;;;;;;7.97;42.59;102616.81;2075626;28;20507;-80
2022/03/19 02:58:59;;;;;;;6.13;1.60;;;;;;;7.99;42.51;102612.56;2084935;28;20045;-79
2022/03/19 03:00:23;;;;;;;4.22;1.70;;;;;;;8.02;43.19;102617.06;2079837;28;20049;-80
2022/03/19 03:01:45;;;;;;;6.43;2.28;;;;;;;8.05;43.23;102604.09;2070105;28;20049;-80
2022/03/19 03:03:08;;;;;;;5.68;1.42;;;;;;;8.06;43.16;102611.19;2069777;28;20053;-80
2022/03/19 03:04:29;;;;;;;5.25;2.13;;;;;;;8.07;42.90;102612.09;2075677;28;20120;-81
2022/03/19 03:05:52;;;;;;;4.22;1.60;;;;;;;8.02;41.83;102602.19;2076796;28;20057;-80
2022/03/19 03:07:15;;;;;;;5.88;1.80;;;;;;;7.96;41.41;102601.88;2061782;28;20053;-81
2022/03/19 03:08:38;;;;;;;3.15;1.30;;;;;;;7.92;40.38;102609.50;2067391;28;20133;-80
2022/03/19 03:10:00;;;;;;;8.02;2.70;;;;;;;7.89;40.13;102601.44;2069980;28;20128;-80
2022/03/19 03:11:23;;;;;;;4.00;2.05;;;;;;;7.86;40.32;102593.38;2077310;28;20521;-80
2022/03/19 03:12:46;;;;;;;4.40;1.10;;;;;;;7.85;41.15;102613.50;2064391;28;20510;-80
2022/03/19 03:14:08;;;;;;;8.15;1.95;;;;;;;7.84;41.22;102614.31;2067315;28;20458;-80
2022/03/19 03:15:32;;;;;;;3.20;1.90;;;;;;;7.81;39.78;102613.25;2058783;28;20038;-80
2022/03/19 03:16:54;;;;;;;2.25;1.58;;;;;;;7.77;39.81;102617.44;2065030;28;20152;-80
2022/03/19 03:18:16;;;;;;;6.05;1.77;;;;;;;7.75;40.32;102629.56;2064115;28;20038;-80
2022/03/19 03:19:38;;;;;;;3.35;1.75;;;;;;;7.79;41.16;102618.44;2068505;28;20046;-80
2022/03/19 03:21:00;;;;;;;2.90;1.33;;;;;;;7.82;42.16;102621.22;2077676;28;20042;-80
2022/03/19 03:22:23;;;;;;;5.82;1.67;;;;;;;7.87;42.65;102611.88;2078371;28;20427;-80
2022/03/19 03:23:45;;;;;;;6.03;1.80;;;;;;;7.90;43.12;102611.13;2060258;28;20414;-80
2022/03/19 03:25:10;;;;;;;7.43;2.10;;;;;;;7.94;43.49;102614.00;2066953;28;20064;-79
2022/03/19 03:26:33;;;;;;;5.20;1.80;;;;;;;7.95;43.73;102622.81;2070288;28;20034;-80
2022/03/19 03:27:55;;;;;;;7.30;2.10;;;;;;;7.96;43.68;102627.25;2077828;28;20041;-80
2022/03/19 03:29:17;;;;;;;5.20;1.73;;;;;;;7.95;43.47;102613.19;2064354;28;20093;-81
2022/03/19 03:30:39;;;;;;;7.75;1.90;;;;;;;7.95;43.53;102625.44;2067536;28;20137;-80
2022/03/19 03:32:01;;;;;;;5.55;2.03;;;;;;;7.95;43.68;102607.94;2066332;28;20041;-81
2022/03/19 03:33:24;;;;;;;3.70;1.75;;;;;;;7.96;43.49;102633.41;2067656;28;20407;-80
2022/03/19 03:34:47;;;;;;;4.10;1.92;;;;;;;7.97;43.50;102631.69;2076374;28;20045;-80
2022/03/19 03:36:08;;;;;;;5.00;1.83;;;;;;;7.97;43.50;102631.69;2069648;28;20053;-80
2022/03/19 03:37:31;;;;;;;7.65;2.25;;;;;;;7.95;43.17;102639.50;2065137;28;20049;-81
2022/03/19 03:38:54;;;;;;;6.38;1.70;;;;;;;7.94;43.54;102642.94;2053857;28;20054;-81
2022/03/19 03:40:19;;;;;;;4.28;1.52;;;;;;;7.95;44.08;102642.13;2065264;28;20069;-81
2022/03/19 03:41:42;;;;;;;5.25;2.08;;;;;;;7.96;44.52;102645.66;2059341;28;20477;-81
2022/03/19 03:43:04;;;;;;;3.20;1.67;;;;;;;7.93;44.88;102635.91;2078064;28;20038;-80
2022/03/19 03:44:28;;;;;;;3.03;1.65;;;;;;;7.93;44.86;102646.41;2069917;28;20136;-80
2022/03/19 03:45:50;;;;;;;3.47;1.92;;;;;;;7.96;44.75;102670.22;2075538;28;20056;-80
2022/03/19 03:47:13;;;;;;;4.78;2.40;;;;;;;7.97;44.97;102656.28;2077877;28;20053;-80
2022/03/19 03:48:36;;;;;;;5.88;1.98;;;;;;;7.96;44.87;102643.03;2062513;28;20070;-82
2022/03/19 03:49:58;;;;;;;7.40;1.77;;;;;;;7.99;44.80;102636.25;2059382;28;20493;-79
2022/03/19 03:51:21;;;;;;;5.50;1.75;;;;;;;8.05;44.88;102630.41;2059161;28;20050;-80
2022/03/19 03:52:44;;;;;;;7.38;2.33;;;;;;;8.08;45.19;102648.97;2070072;28;20475;-79
2022/03/19 03:54:07;;;;;;;6.32;2.63;;;;;;;8.11;45.70;102649.16;2080200;28;20068;-80
2022/03/19 03:55:33;;;;;;;6.32;2.28;;;;;;;8.13;45.84;102636.09;2074540;28;20065;-80
2022/03/19 03:56:55;;;;;;;6.50;1.85;;;;;;;8.14;45.92;102651.06;2070309;28;20100;-80
2022/03/19 03:58:18;;;;;;;5.70;1.90;;;;;;;8.16;46.06;102662.56;2069673;28;20046;-79
2022/03/19 03:59:41;;;;;;;7.68;2.15;;;;;;;8.18;46.23;102640.78;2069844;28;20037;-80
2022/03/19 04:01:04;;;;;;;2.08;1.20;;;;;;;8.20;46.44;102670.72;2077951;28;20077;-80
2022/03/19 04:02:25;;;;;;;5.78;2.08;;;;;;;8.23;46.30;102659.44;2075607;28;20041;-81
2022/03/19 04:03:48;;;;;;;2.97;1.48;;;;;;;8.22;46.25;102657.63;2069634;28;20057;-81
2022/03/19 04:05:10;;;;;;;4.55;1.48;;;;;;;8.24;46.02;102650.75;2075589;28;20045;-82
2022/03/19 04:06:32;;;;;;;5.68;2.33;;;;;;;8.24;45.80;102656.00;2077731;28;20055;-81
2022/03/19 04:07:56;;;;;;;3.42;1.60;;;;;;;8.24;45.60;102659.53;2074041;28;20137;-81
2022/03/19 04:09:18;;;;;;;4.22;2.25;;;;;;;8.21;45.55;102656.72;2077918;28;20045;-81
2022/03/19 04:10:41;;;;;;;6.80;1.80;;;;;;;8.17;44.77;102662.66;2072205;28;20124;-81
2022/03/19 04:12:04;;;;;;;7.00;2.15;;;;;;;8.16;44.80;102652.03;2061859;28;20050;-81
2022/03/19 04:13:27;;;;;;;5.43;1.40;;;;;;;8.14;44.73;102657.19;2068370;28;20634;-80
2022/03/19 04:14:50;;;;;;;3.83;1.67;;;;;;;8.15;45.04;102645.88;2076321;28;20110;-81
2022/03/19 04:16:13;;;;;;;2.28;1.60;;;;;;;8.14;45.21;102656.31;2066102;28;20100;-81
2022/03/19 04:17:36;;;;;;;4.95;1.98;;;;;;;8.11;45.37;102669.28;2064260;28;20054;-82
2022/03/19 04:18:59;;;;;;;4.13;1.60;;;;;;;8.02;44.99;102680.19;2069896;28;20045;-81
2022/03/19 04:20:22;;;;;;;7.05;2.80;;;;;;;7.96;44.80;102670.22;2059729;28;20063;-81
2022/03/19 04:21:44;;;;;;;3.00;1.75;;;;;;;7.97;44.76;102671.16;2058289;28;20053;-81
2022/03/19 04:23:06;;;;;;;7.57;2.15;;;;;;;7.93;42.99;102659.56;2064549;28;20116;-81
2022/03/19 04:24:29;;;;;;;3.47;1.67;;;;;;;7.84;42.17;102673.88;2061059;28;20042;-78
2022/03/19 04:25:58;;;;;;;3.95;1.65;;;;;;;7.77;40.74;102682.25;2075314;28;20045;-79
2022/03/19 04:27:19;;;;;;;6.57;1.20;;;;;;;7.71;40.40;102679.25;2064073;28;20148;-78
2022/03/19 04:28:42;;;;;;;3.70;1.17;;;;;;;7.70;40.55;102680.97;2061378;28;20544;-77
2022/03/19 04:30:04;;;;;;;2.90;1.33;;;;;;;7.69;40.54;102689.69;2064981;28;20042;-78
2022/03/19 04:31:26;;;;;;;5.68;1.75;;;;;;;7.67;40.65;102682.53;2076343;28;20185;-78
2022/03/19 04:32:49;;;;;;;3.55;1.27;;;;;;;7.68;40.93;102690.50;2070546;28;20198;-78
2022/03/19 04:34:12;;;;;;;4.43;1.95;;;;;;;7.64;40.75;102679.72;2060834;28;20042;-79
2022/03/19 04:37:15;;;;;;;5.28;2.55;;;;;;;7.62;41.43;102682.25;2074423;28;20042;-78
2022/03/19 04:38:39;;;;;;;5.25;1.70;;;;;;;7.60;41.03;102689.16;2062495;28;20050;-77
2022/03/19 04:40:02;;;;;;;4.78;2.20;;;;;;;7.57;40.80;102673.19;2060836;28;20047;-78
2022/03/19 04:41:27;;;;;;;3.17;1.45;;;;;;;7.56;40.41;102668.75;2082468;28;20056;-78
2022/03/19 04:42:48;;;;;;;9.50;3.70;;;;;;;7.57;40.76;102675.81;2073508;28;20065;-78
2022/03/19 04:44:11;;;;;;;8.48;2.50;;;;;;;7.64;41.04;102669.22;2070798;28;20145;-79
2022/03/19 04:45:32;;;;;;;15.13;4.35;;;;;;;7.69;41.49;102668.66;2058682;28;20076;-78
2022/03/19 04:46:55;;;;;;;8.90;3.28;;;;;;;7.73;41.86;102675.00;2068284;28;20478;-78
2022/03/19 04:48:16;;;;;;;6.93;2.38;;;;;;;7.75;41.90;102679.53;2057292;28;20127;-78
2022/03/19 04:49:38;;;;;;;8.50;3.58;;;;;;;7.80;41.93;102674.53;2081515;28;20214;-78
2022/03/19 04:51:00;;;;;;;5.18;1.90;;;;;;;7.85;41.64;102680.97;2065748;28;20423;-79
2022/03/19 04:52:22;;;;;;;3.25;1.30;;;;;;;7.88;41.64;102674.16;2059798;28;20133;-79
2022/03/19 04:53:50;;;;;;;9.10;1.58;;;;;;;7.89;41.49;102667.16;2066563;28;20050;-79
2022/03/19 04:55:13;;;;;;;3.28;1.30;;;;;;;7.89;41.53;102667.16;2061136;28;20134;-79
2022/03/19 04:56:38;;;;;;;6.90;2.05;;;;;;;7.89;41.70;102668.06;2069943;28;20042;-80
2022/03/19 04:58:00;;;;;;;4.30;1.77;;;;;;;7.89;41.80;102661.91;2071313;28;20564;-82
2022/03/19 04:59:22;;;;;;;5.30;1.75;;;;;;;7.90;41.80;102656.75;2068910;28;20053;-80
2022/03/19 05:00:45;;;;;;;4.22;1.60;;;;;;;7.95;41.85;102672.78;2080922;28;20153;-79
2022/03/19 05:02:08;;;;;;;4.55;1.33;;;;;;;7.96;42.04;102664.97;2062256;28;20047;-78
2022/03/19 05:03:30;;;;;;;2.97;1.45;;;;;;;7.95;41.74;102673.69;2061997;28;20050;-79
2022/03/19 05:04:52;;;;;;;3.33;1.80;;;;;;;7.95;41.68;102665.78;2078884;28;20037;-78
2022/03/19 05:06:15;;;;;;;2.78;1.50;;;;;;;7.95;41.30;102686.81;2078597;28;20058;-78
2022/03/19 05:07:37;;;;;;;4.80;1.70;;;;;;;7.95;41.33;102678.03;2062518;28;20279;-78
2022/03/19 05:12:31;;;;;;;8.35;1.77;;;;;;;7.84;42.05;102698.47;2081048;28;20049;-78
2022/03/19 05:13:55;;;;;;;8.90;2.20;;;;;;;7.86;42.06;102685.41;2079582;28;20046;-78
2022/03/19 05:15:17;;;;;;;4.53;1.98;;;;;;;7.92;42.23;102688.38;2070514;28;20053;-79
2022/03/19 05:16:39;;;;;;;5.47;2.05;;;;;;;7.95;42.72;102676.31;2069888;28;20037;-79
2022/03/19 05:18:02;;;;;;;4.97;1.83;;;;;;;8.01;42.50;102674.03;2076471;28;20054;-79
2022/03/19 05:19:25;;;;;;;8.95;2.15;;;;;;;8.04;42.07;102668.03;2084710;28;20068;-80
2022/03/19 05:20:47;;;;;;;4.88;1.33;;;;;;;8.07;41.45;102683.09;2066546;28;20050;-81
2022/03/19 05:22:10;;;;;;;3.63;1.80;;;;;;;8.06;41.37;102674.31;2075468;28;20739;-80
2022/03/19 05:23:34;;;;;;;3.92;1.98;;;;;;;8.13;41.45;102679.09;2062502;28;20756;-79
2022/03/19 05:24:56;;;;;;;2.97;1.90;;;;;;;8.21;41.03;102683.03;2071065;28;20041;-79
2022/03/19 05:26:18;;;;;;;4.28;1.40;;;;;;;8.19;40.25;102670.63;2070707;28;20082;-79
2022/03/19 05:27:42;;;;;;;5.32;1.83;;;;;;;8.17;40.46;102669.63;2070406;28;20065;-79
2022/03/19 05:29:05;;;;;;;10.45;1.77;;;;;;;8.16;40.92;102679.25;2076940;28;20493;-80
2022/03/19 05:30:26;;;;;;;5.40;1.30;;;;;;;8.16;41.10;102673.06;2073531;28;20420;-80
2022/03/19 05:31:49;;;;;;;3.38;1.15;;;;;;;8.12;41.00;102672.03;2063248;28;20062;-81
2022/03/19 05:33:13;;;;;;;7.93;1.55;;;;;;;8.09;41.12;102676.19;2060087;28;20058;-80
2022/03/19 05:34:35;;;;;;;2.20;1.20;;;;;;;8.06;41.85;102671.69;2066276;28;20042;-81
2022/03/19 05:35:57;;;;;;;3.75;1.48;;;;;;;8.05;42.32;102661.97;2062410;28;20052;-81
2022/03/19 05:37:20;;;;;;;13.23;2.65;;;;;;;8.06;42.55;102660.25;2084497;28;20053;-81
2022/03/19 05:38:42;;;;;;;1.42;0.85;;;;;;;8.11;42.50;102674.56;2084013;28;20144;-80
2022/03/19 05:40:07;;;;;;;3.42;1.42;;;;;;;8.14;42.23;102690.53;2064516;28;20065;-80
2022/03/19 05:41:30;;;;;;;4.70;1.70;;;;;;;8.12;41.57;102673.75;2061200;28;20055;-81
2022/03/19 05:42:54;;;;;;;4.82;1.98;;;;;;;8.11;41.67;102678.09;2076539;28;20272;-80
2022/03/19 05:44:15;;;;;;;5.25;1.70;;;;;;;8.14;41.57;102690.53;2086101;28;20080;-82
2022/03/19 05:45:38;;;;;;;3.05;1.50;;;;;;;8.17;41.16;102682.78;2067699;28;20546;-81
2022/03/19 05:47:01;;;;;;;4.30;1.33;;;;;;;8.21;40.68;102704.09;2062723;28;20096;-81
2022/03/19 05:48:23;;;;;;;4.75;1.48;;;;;;;8.19;40.51;102694.31;2076985;28;20069;-80
2022/03/19 05:49:46;;;;;;;4.15;1.83;;;;;;;8.11;41.11;102691.25;2068952;28;20037;-80
2022/03/19 05:51:08;;;;;;;2.13;1.08;;;;;;;8.07;41.38;102704.16;2076052;28;20050;-81
2022/03/19 05:52:31;;;;;;;4.00;1.48;;;;;;;8.01;41.82;102697.69;2056986;28;20053;-82
2022/03/19 05:53:52;;;;;;;8.10;2.30;;;;;;;8.00;41.96;102681.84;2073866;28;20495;-81
2022/03/19 05:55:16;;;;;;;5.20;1.85;;;;;;;8.00;41.82;102698.53;2070206;28;20050;-81
2022/03/19 05:56:37;;;;;;;3.00;1.70;;;;;;;8.01;41.91;102695.06;2060326;28;20133;-80
2022/03/19 05:58:02;;;;;;;7.35;2.38;;;;;;;8.08;41.99;102704.22;2068032;28;20168;-81
2022/03/19 05:59:23;;;;;;;10.40;4.38;;;;;;;8.13;41.76;102700.13;2070077;28;20071;-81
2022/03/19 06:00:47;;;;;;;10.95;4.78;;;;;;;8.11;41.87;102700.84;2067022;28;20042;-81
2022/03/19 06:02:14;;;;;;;12.38;6.47;;;;;;;8.12;42.15;102695.69;2064499;28;20043;-81
2022/03/19 06:03:35;;;;;;;21.52;10.40;;;;;;;8.11;41.91;102695.59;2060588;28;20065;-81
2022/03/19 06:04:57;;;;;;;10.23;4.10;;;;;;;8.12;42.21;102693.06;2084146;28;20045;-79
2022/03/19 06:06:19;;;;;;;7.32;3.60;;;;;;;8.13;42.29;102710.66;2075481;28;20525;-81
2022/03/19 06:07:41;;;;;;;15.52;4.82;;;;;;;8.14;42.18;102704.56;2067292;28;20065;-82
2022/03/19 06:09:03;;;;;;;11.13;3.38;;;;;;;8.18;42.29;102714.44;2070021;28;20537;-81
2022/03/19 06:10:25;;;;;;;8.25;3.97;;;;;;;8.21;42.02;102696.19;2070459;28;20104;-81
2022/03/19 06:11:48;;;;;;;7.40;3.60;;;;;;;8.22;41.79;102695.38;2075681;28;20053;-81
2022/03/19 06:13:12;;;;;;;7.72;2.90;;;;;;;8.31;41.92;102698.56;2073375;28;20174;-81
2022/03/19 06:14:35;;;;;;;9.43;4.15;;;;;;;8.38;41.90;102707.72;2063619;28;20045;-82
2022/03/19 06:15:58;;;;;;;6.88;2.85;;;;;;;8.37;41.87;102684.84;2070331;28;20514;-81
2022/03/19 06:17:21;;;;;;;8.70;4.07;;;;;;;8.30;41.99;102717.81;2066514;28;20054;-81
2022/03/19 06:18:46;;;;;;;5.43;2.72;;;;;;;8.34;42.27;102705.72;2081320;28;20524;-80
2022/03/19 06:20:09;;;;;;;8.90;2.42;;;;;;;8.43;42.55;102710.59;2079688;28;20440;-80
2022/03/19 06:21:32;;;;;;;8.20;2.03;;;;;;;8.49;42.52;102703.03;2069936;28;20061;-81
2022/03/19 06:22:55;;;;;;;12.38;3.33;;;;;;;8.54;43.03;102714.72;2066826;28;20058;-81
2022/03/19 06:24:17;;;;;;;9.27;3.08;;;;;;;8.61;43.09;102716.84;2075204;28;20045;-81
2022/03/19 06:25:39;;;;;;;7.32;3.80;;;;;;;8.51;43.46;102712.84;2070278;28;20076;-81
2022/03/19 06:27:03;;;;;;;14.02;4.70;;;;;;;8.46;43.68;102705.50;2067419;28;20061;-81
2022/03/19 06:28:27;;;;;;;15.95;4.68;;;;;;;8.42;43.93;102714.03;2073352;28;20076;-81
2022/03/19 06:29:50;;;;;;;18.90;6.00;;;;;;;8.44;44.14;102717.66;2054250;28;20058;-81
2022/03/19 06:31:12;;;;;;;8.07;3.92;;;;;;;8.49;44.11;102714.47;2065944;28;20073;-82
2022/03/19 06:32:39;;;;;;;11.68;5.50;;;;;;;8.53;44.00;102718.19;2065830;28;20355;-82
2022/03/19 06:34:02;;;;;;;9.20;4.38;;;;;;;8.57;43.89;102710.53;2068813;28;20046;-82
2022/03/19 06:38:41;;;;;;;7.95;3.22;;;;;;;8.55;42.91;102729.69;2080541;28;20485;-82
2022/03/19 06:40:07;;;;;;;10.68;4.90;;;;;;;8.60;43.19;102726.47;2078368;28;20583;-82
2022/03/19 06:41:29;;;;;;;7.85;3.53;;;;;;;8.73;43.08;102728.97;2070882;28;20049;-82
2022/03/19 06:42:51;;;;;;;12.07;4.70;;;;;;;8.95;42.77;102730.13;2074774;28;20172;-82